sensor_id;sensor_type;location;lat;lon;timestamp;P1;durP1;ratioP1;P2;durP2;ratioP2
14316;SDS011;7242;50.858;6.586;2023-05-21T00:02:01;13.60;;;10.83;;
14316;SDS011;7242;50.858;6.586;2023-05-21T00:05:09;12.50;;;10.20;;
14316;SDS011;7242;50.858;6.586;2023-05-21T00:08:10;11.50;;;10.33;;
14316;SDS011;7242;50.858;6.586;2023-05-21T00:11:11;11.67;;;10.47;;
14316;SDS011;7242;50.858;6.586;2023-05-21T00:14:12;11.20;;;10.10;;
14316;SDS011;7242;50.858;6.586;2023-05-21T00:17:13;10.77;;;9.70;;
14316;SDS011;7242;50.858;6.586;2023-05-21T00:20:15;11.60;;;10.40;;
14316;SDS011;7242;50.858;6.586;2023-05-21T00:23:16;11.20;;;10.10;;
14316;SDS011;7242;50.858;6.586;2023-05-21T00:26:17;11.27;;;10.07;;
14316;SDS011;7242;50.858;6.586;2023-05-21T00:29:19;11.40;;;10.20;;
14316;SDS011;7242;50.858;6.586;2023-05-21T00:32:20;12.20;;;10.83;;
14316;SDS011;7242;50.858;6.586;2023-05-21T00:35:20;12.13;;;10.90;;
14316;SDS011;7242;50.858;6.586;2023-05-21T00:38:22;12.23;;;10.93;;
14316;SDS011;7242;50.858;6.586;2023-05-21T00:41:22;11.80;;;10.50;;
14316;SDS011;7242;50.858;6.586;2023-05-21T00:44:25;12.03;;;10.67;;
14316;SDS011;7242;50.858;6.586;2023-05-21T00:47:27;12.33;;;10.90;;
14316;SDS011;7242;50.858;6.586;2023-05-21T00:50:28;12.43;;;11.23;;
14316;SDS011;7242;50.858;6.586;2023-05-21T00:53:31;12.80;;;10.87;;
14316;SDS011;7242;50.858;6.586;2023-05-21T00:56:34;13.10;;;11.30;;
14316;SDS011;7242;50.858;6.586;2023-05-21T00:59:35;14.77;;;11.73;;
14316;SDS011;7242;50.858;6.586;2023-05-21T01:02:36;13.73;;;12.20;;
14316;SDS011;7242;50.858;6.586;2023-05-21T01:05:37;12.23;;;11.03;;
14316;SDS011;7242;50.858;6.586;2023-05-21T01:08:38;14.13;;;11.80;;
14316;SDS011;7242;50.858;6.586;2023-05-21T01:11:43;13.17;;;11.37;;
14316;SDS011;7242;50.858;6.586;2023-05-21T01:14:46;12.30;;;11.00;;
14316;SDS011;7242;50.858;6.586;2023-05-21T01:17:47;15.00;;;12.17;;
14316;SDS011;7242;50.858;6.586;2023-05-21T01:20:50;13.80;;;11.83;;
14316;SDS011;7242;50.858;6.586;2023-05-21T01:23:52;12.83;;;11.53;;
14316;SDS011;7242;50.858;6.586;2023-05-21T01:26:53;14.60;;;12.53;;
14316;SDS011;7242;50.858;6.586;2023-05-21T01:29:54;13.27;;;11.87;;
14316;SDS011;7242;50.858;6.586;2023-05-21T01:32:57;13.33;;;11.93;;
14316;SDS011;7242;50.858;6.586;2023-05-21T01:36:07;13.53;;;11.43;;
14316;SDS011;7242;50.858;6.586;2023-05-21T01:39:25;13.07;;;11.70;;
14316;SDS011;7242;50.858;6.586;2023-05-21T01:42:27;13.93;;;12.17;;
14316;SDS011;7242;50.858;6.586;2023-05-21T01:45:30;13.20;;;11.80;;
14316;SDS011;7242;50.858;6.586;2023-05-21T01:48:31;13.73;;;12.13;;
14316;SDS011;7242;50.858;6.586;2023-05-21T01:51:35;13.73;;;12.23;;
14316;SDS011;7242;50.858;6.586;2023-05-21T01:54:36;12.83;;;11.57;;
14316;SDS011;7242;50.858;6.586;2023-05-21T01:57:37;14.60;;;12.60;;
14316;SDS011;7242;50.858;6.586;2023-05-21T02:00:38;14.40;;;12.20;;
14316;SDS011;7242;50.858;6.586;2023-05-21T02:03:39;15.67;;;12.47;;
14316;SDS011;7242;50.858;6.586;2023-05-21T02:06:40;13.57;;;11.90;;
14316;SDS011;7242;50.858;6.586;2023-05-21T02:09:41;13.43;;;11.73;;
14316;SDS011;7242;50.858;6.586;2023-05-21T02:12:42;13.10;;;11.80;;
14316;SDS011;7242;50.858;6.586;2023-05-21T02:15:42;15.47;;;13.33;;
14316;SDS011;7242;50.858;6.586;2023-05-21T02:18:45;13.30;;;11.77;;
14316;SDS011;7242;50.858;6.586;2023-05-21T02:21:50;13.40;;;11.93;;
14316;SDS011;7242;50.858;6.586;2023-05-21T02:24:51;12.70;;;11.40;;
14316;SDS011;7242;50.858;6.586;2023-05-21T02:27:53;13.30;;;11.90;;
14316;SDS011;7242;50.858;6.586;2023-05-21T02:30:55;13.40;;;11.63;;
14316;SDS011;7242;50.858;6.586;2023-05-21T02:33:56;13.43;;;12.03;;
14316;SDS011;7242;50.858;6.586;2023-05-21T02:36:57;12.73;;;11.43;;
14316;SDS011;7242;50.858;6.586;2023-05-21T02:39:58;14.70;;;12.10;;
14316;SDS011;7242;50.858;6.586;2023-05-21T02:43:01;12.50;;;11.07;;
14316;SDS011;7242;50.858;6.586;2023-05-21T02:46:05;11.53;;;10.40;;
14316;SDS011;7242;50.858;6.586;2023-05-21T02:49:06;13.50;;;11.00;;
14316;SDS011;7242;50.858;6.586;2023-05-21T02:52:07;11.40;;;10.20;;
14316;SDS011;7242;50.858;6.586;2023-05-21T02:55:08;12.20;;;10.87;;
14316;SDS011;7242;50.858;6.586;2023-05-21T02:58:09;11.30;;;10.30;;
14316;SDS011;7242;50.858;6.586;2023-05-21T03:01:12;12.47;;;10.93;;
14316;SDS011;7242;50.858;6.586;2023-05-21T03:04:13;12.90;;;11.57;;
14316;SDS011;7242;50.858;6.586;2023-05-21T03:07:16;12.03;;;10.47;;
14316;SDS011;7242;50.858;6.586;2023-05-21T03:10:19;13.20;;;11.80;;
14316;SDS011;7242;50.858;6.586;2023-05-21T03:13:20;12.90;;;11.57;;
14316;SDS011;7242;50.858;6.586;2023-05-21T03:16:22;13.73;;;11.80;;
14316;SDS011;7242;50.858;6.586;2023-05-21T03:19:23;12.93;;;11.63;;
14316;SDS011;7242;50.858;6.586;2023-05-21T03:22:24;16.50;;;13.40;;
14316;SDS011;7242;50.858;6.586;2023-05-21T03:25:25;14.47;;;12.30;;
14316;SDS011;7242;50.858;6.586;2023-05-21T03:28:28;13.77;;;12.37;;
14316;SDS011;7242;50.858;6.586;2023-05-21T03:31:29;14.83;;;13.10;;
14316;SDS011;7242;50.858;6.586;2023-05-21T03:34:42;15.27;;;13.10;;
14316;SDS011;7242;50.858;6.586;2023-05-21T03:37:43;14.10;;;12.60;;
14316;SDS011;7242;50.858;6.586;2023-05-21T03:40:44;14.60;;;12.97;;
14316;SDS011;7242;50.858;6.586;2023-05-21T03:43:44;14.47;;;12.97;;
14316;SDS011;7242;50.858;6.586;2023-05-21T03:46:45;14.17;;;12.67;;
14316;SDS011;7242;50.858;6.586;2023-05-21T03:49:54;15.73;;;13.20;;
14316;SDS011;7242;50.858;6.586;2023-05-21T03:52:55;14.60;;;13.10;;
14316;SDS011;7242;50.858;6.586;2023-05-21T03:55:56;16.53;;;13.73;;
14316;SDS011;7242;50.858;6.586;2023-05-21T03:58:58;16.77;;;13.70;;
14316;SDS011;7242;50.858;6.586;2023-05-21T04:01:59;14.33;;;12.80;;
14316;SDS011;7242;50.858;6.586;2023-05-21T04:04:59;14.30;;;12.80;;
14316;SDS011;7242;50.858;6.586;2023-05-21T04:08:01;14.97;;;13.37;;
14316;SDS011;7242;50.858;6.586;2023-05-21T04:11:02;14.70;;;12.90;;
14316;SDS011;7242;50.858;6.586;2023-05-21T04:14:03;14.03;;;12.53;;
14316;SDS011;7242;50.858;6.586;2023-05-21T04:17:04;13.53;;;12.17;;
14316;SDS011;7242;50.858;6.586;2023-05-21T04:20:06;14.10;;;12.60;;
14316;SDS011;7242;50.858;6.586;2023-05-21T04:23:07;13.80;;;12.27;;
14316;SDS011;7242;50.858;6.586;2023-05-21T04:26:09;14.13;;;12.63;;
14316;SDS011;7242;50.858;6.586;2023-05-21T04:29:13;15.80;;;12.23;;
14316;SDS011;7242;50.858;6.586;2023-05-21T04:32:17;13.50;;;12.10;;
14316;SDS011;7242;50.858;6.586;2023-05-21T04:35:18;13.40;;;12.00;;
14316;SDS011;7242;50.858;6.586;2023-05-21T04:38:19;13.17;;;11.60;;
14316;SDS011;7242;50.858;6.586;2023-05-21T04:41:20;14.27;;;12.30;;
14316;SDS011;7242;50.858;6.586;2023-05-21T04:44:21;14.80;;;12.53;;
14316;SDS011;7242;50.858;6.586;2023-05-21T04:47:22;13.87;;;12.40;;
14316;SDS011;7242;50.858;6.586;2023-05-21T04:50:23;14.03;;;12.60;;
14316;SDS011;7242;50.858;6.586;2023-05-21T04:53:24;12.97;;;11.67;;
14316;SDS011;7242;50.858;6.586;2023-05-21T04:56:26;13.13;;;11.73;;
14316;SDS011;7242;50.858;6.586;2023-05-21T04:59:27;14.53;;;12.00;;
14316;SDS011;7242;50.858;6.586;2023-05-21T05:02:27;12.67;;;11.37;;
14316;SDS011;7242;50.858;6.586;2023-05-21T05:05:28;12.40;;;11.10;;
14316;SDS011;7242;50.858;6.586;2023-05-21T05:08:29;13.60;;;11.43;;
14316;SDS011;7242;50.858;6.586;2023-05-21T05:11:30;11.13;;;10.03;;
14316;SDS011;7242;50.858;6.586;2023-05-21T05:14:31;11.83;;;10.50;;
14316;SDS011;7242;50.858;6.586;2023-05-21T05:17:33;12.27;;;10.97;;
14316;SDS011;7242;50.858;6.586;2023-05-21T05:20:34;12.67;;;10.23;;
14316;SDS011;7242;50.858;6.586;2023-05-21T05:23:35;11.47;;;9.80;;
14316;SDS011;7242;50.858;6.586;2023-05-21T05:26:36;11.47;;;10.27;;
14316;SDS011;7242;50.858;6.586;2023-05-21T05:29:37;11.50;;;9.27;;
14316;SDS011;7242;50.858;6.586;2023-05-21T05:32:38;11.13;;;9.93;;
14316;SDS011;7242;50.858;6.586;2023-05-21T05:35:38;11.73;;;10.40;;
14316;SDS011;7242;50.858;6.586;2023-05-21T05:38:40;10.87;;;9.77;;
14316;SDS011;7242;50.858;6.586;2023-05-21T05:41:41;10.37;;;9.27;;
14316;SDS011;7242;50.858;6.586;2023-05-21T05:44:42;9.87;;;8.70;;
14316;SDS011;7242;50.858;6.586;2023-05-21T05:47:43;10.17;;;9.07;;
14316;SDS011;7242;50.858;6.586;2023-05-21T05:50:44;10.90;;;9.50;;
14316;SDS011;7242;50.858;6.586;2023-05-21T05:53:47;9.30;;;8.23;;
14316;SDS011;7242;50.858;6.586;2023-05-21T05:56:48;10.83;;;8.37;;
14316;SDS011;7242;50.858;6.586;2023-05-21T05:59:49;8.83;;;7.93;;
14316;SDS011;7242;50.858;6.586;2023-05-21T06:02:50;8.60;;;7.80;;
14316;SDS011;7242;50.858;6.586;2023-05-21T06:05:51;10.00;;;9.00;;
14316;SDS011;7242;50.858;6.586;2023-05-21T06:08:52;9.50;;;8.60;;
14316;SDS011;7242;50.858;6.586;2023-05-21T06:11:54;9.13;;;7.50;;
14316;SDS011;7242;50.858;6.586;2023-05-21T06:14:55;7.37;;;6.67;;
14316;SDS011;7242;50.858;6.586;2023-05-21T06:17:56;7.90;;;7.10;;
14316;SDS011;7242;50.858;6.586;2023-05-21T06:20:57;9.80;;;8.27;;
14316;SDS011;7242;50.858;6.586;2023-05-21T06:23:58;8.77;;;7.20;;
14316;SDS011;7242;50.858;6.586;2023-05-21T06:26:59;7.43;;;6.70;;
14316;SDS011;7242;50.858;6.586;2023-05-21T06:30:00;9.60;;;7.00;;
14316;SDS011;7242;50.858;6.586;2023-05-21T06:33:01;8.10;;;7.07;;
14316;SDS011;7242;50.858;6.586;2023-05-21T06:36:01;7.97;;;7.17;;
14316;SDS011;7242;50.858;6.586;2023-05-21T06:39:03;7.90;;;6.47;;
14316;SDS011;7242;50.858;6.586;2023-05-21T06:42:04;7.60;;;6.90;;
14316;SDS011;7242;50.858;6.586;2023-05-21T06:45:26;8.43;;;6.90;;
14316;SDS011;7242;50.858;6.586;2023-05-21T06:48:32;8.10;;;6.27;;
14316;SDS011;7242;50.858;6.586;2023-05-21T06:51:33;7.87;;;6.80;;
14316;SDS011;7242;50.858;6.586;2023-05-21T06:54:34;7.57;;;6.33;;
14316;SDS011;7242;50.858;6.586;2023-05-21T06:57:36;7.27;;;5.93;;
14316;SDS011;7242;50.858;6.586;2023-05-21T07:00:37;6.50;;;5.70;;
14316;SDS011;7242;50.858;6.586;2023-05-21T07:03:38;8.57;;;6.80;;
14316;SDS011;7242;50.858;6.586;2023-05-21T07:06:41;7.53;;;6.60;;
14316;SDS011;7242;50.858;6.586;2023-05-21T07:09:42;9.07;;;6.70;;
14316;SDS011;7242;50.858;6.586;2023-05-21T07:12:43;8.60;;;7.07;;
14316;SDS011;7242;50.858;6.586;2023-05-21T07:15:44;7.43;;;6.10;;
14316;SDS011;7242;50.858;6.586;2023-05-21T07:18:45;7.37;;;6.00;;
14316;SDS011;7242;50.858;6.586;2023-05-21T07:21:48;7.40;;;6.63;;
14316;SDS011;7242;50.858;6.586;2023-05-21T07:24:48;8.80;;;6.80;;
14316;SDS011;7242;50.858;6.586;2023-05-21T07:27:50;7.80;;;6.90;;
14316;SDS011;7242;50.858;6.586;2023-05-21T07:30:51;6.60;;;6.00;;
14316;SDS011;7242;50.858;6.586;2023-05-21T07:33:58;9.90;;;6.57;;
14316;SDS011;7242;50.858;6.586;2023-05-21T07:37:02;6.00;;;5.40;;
14316;SDS011;7242;50.858;6.586;2023-05-21T07:40:03;7.57;;;6.80;;
14316;SDS011;7242;50.858;6.586;2023-05-21T07:43:05;7.30;;;6.43;;
14316;SDS011;7242;50.858;6.586;2023-05-21T07:46:08;7.60;;;6.90;;
14316;SDS011;7242;50.858;6.586;2023-05-21T07:49:10;6.70;;;5.97;;
14316;SDS011;7242;50.858;6.586;2023-05-21T07:52:16;8.83;;;6.40;;
14316;SDS011;7242;50.858;6.586;2023-05-21T07:55:17;6.13;;;5.50;;
14316;SDS011;7242;50.858;6.586;2023-05-21T07:58:18;7.90;;;6.27;;
14316;SDS011;7242;50.858;6.586;2023-05-21T08:01:19;6.63;;;5.93;;
14316;SDS011;7242;50.858;6.586;2023-05-21T08:04:21;6.38;;;5.00;;
14316;SDS011;7242;50.858;6.586;2023-05-21T08:07:21;4.97;;;4.57;;
14316;SDS011;7242;50.858;6.586;2023-05-21T08:10:22;8.05;;;6.15;;
14316;SDS011;7242;50.858;6.586;2023-05-21T08:13:25;7.80;;;6.55;;
14316;SDS011;7242;50.858;6.586;2023-05-21T08:16:26;5.35;;;4.85;;
14316;SDS011;7242;50.858;6.586;2023-05-21T08:19:27;6.40;;;5.20;;
14316;SDS011;7242;50.858;6.586;2023-05-21T08:22:28;6.65;;;6.05;;
14316;SDS011;7242;50.858;6.586;2023-05-21T08:25:29;8.00;;;6.18;;
14316;SDS011;7242;50.858;6.586;2023-05-21T08:28:31;7.13;;;6.53;;
14316;SDS011;7242;50.858;6.586;2023-05-21T08:31:34;7.57;;;5.63;;
14316;SDS011;7242;50.858;6.586;2023-05-21T08:34:35;7.17;;;6.40;;
14316;SDS011;7242;50.858;6.586;2023-05-21T08:37:49;6.90;;;6.20;;
14316;SDS011;7242;50.858;6.586;2023-05-21T08:41:03;9.57;;;7.57;;
14316;SDS011;7242;50.858;6.586;2023-05-21T08:44:08;8.63;;;7.83;;
14316;SDS011;7242;50.858;6.586;2023-05-21T08:47:11;9.87;;;7.30;;
14316;SDS011;7242;50.858;6.586;2023-05-21T08:50:15;9.27;;;7.77;;
14316;SDS011;7242;50.858;6.586;2023-05-21T08:53:20;8.90;;;6.77;;
14316;SDS011;7242;50.858;6.586;2023-05-21T08:56:22;8.30;;;7.50;;
14316;SDS011;7242;50.858;6.586;2023-05-21T08:59:28;8.67;;;7.77;;
14316;SDS011;7242;50.858;6.586;2023-05-21T09:02:32;8.17;;;7.37;;
14316;SDS011;7242;50.858;6.586;2023-05-21T09:05:34;9.57;;;8.67;;
14316;SDS011;7242;50.858;6.586;2023-05-21T09:08:35;14.80;;;13.20;;
14316;SDS011;7242;50.858;6.586;2023-05-21T09:11:50;8.53;;;7.73;;
14316;SDS011;7242;50.858;6.586;2023-05-21T09:14:51;10.03;;;8.83;;
14316;SDS011;7242;50.858;6.586;2023-05-21T09:17:56;8.50;;;7.60;;
14316;SDS011;7242;50.858;6.586;2023-05-21T09:21:29;9.17;;;7.57;;
14316;SDS011;7242;50.858;6.586;2023-05-21T09:24:45;10.10;;;8.87;;
14316;SDS011;7242;50.858;6.586;2023-05-21T09:27:47;10.07;;;9.07;;
14316;SDS011;7242;50.858;6.586;2023-05-21T09:30:50;13.80;;;9.80;;
14316;SDS011;7242;50.858;6.586;2023-05-21T09:33:56;11.07;;;7.90;;
14316;SDS011;7242;50.858;6.586;2023-05-21T09:36:58;10.23;;;8.77;;
14316;SDS011;7242;50.858;6.586;2023-05-21T09:40:04;13.53;;;8.70;;
14316;SDS011;7242;50.858;6.586;2023-05-21T09:43:14;10.40;;;9.30;;
14316;SDS011;7242;50.858;6.586;2023-05-21T09:46:19;10.83;;;9.07;;
14316;SDS011;7242;50.858;6.586;2023-05-21T09:49:21;10.70;;;9.60;;
14316;SDS011;7242;50.858;6.586;2023-05-21T09:52:23;10.40;;;8.53;;
14316;SDS011;7242;50.858;6.586;2023-05-21T09:55:25;11.27;;;9.83;;
14316;SDS011;7242;50.858;6.586;2023-05-21T09:58:26;10.93;;;9.83;;
14316;SDS011;7242;50.858;6.586;2023-05-21T10:01:27;14.03;;;12.73;;
14316;SDS011;7242;50.858;6.586;2023-05-21T10:04:30;10.90;;;9.80;;
14316;SDS011;7242;50.858;6.586;2023-05-21T10:07:32;11.17;;;9.37;;
14316;SDS011;7242;50.858;6.586;2023-05-21T10:10:34;11.53;;;10.33;;
14316;SDS011;7242;50.858;6.586;2023-05-21T10:13:40;12.47;;;10.97;;
14316;SDS011;7242;50.858;6.586;2023-05-21T10:16:43;12.07;;;10.77;;
14316;SDS011;7242;50.858;6.586;2023-05-21T10:19:46;11.53;;;10.43;;
14316;SDS011;7242;50.858;6.586;2023-05-21T10:22:49;13.73;;;11.53;;
14316;SDS011;7242;50.858;6.586;2023-05-21T10:25:50;11.93;;;10.70;;
14316;SDS011;7242;50.858;6.586;2023-05-21T10:28:54;13.13;;;11.80;;
14316;SDS011;7242;50.858;6.586;2023-05-21T10:31:55;13.47;;;11.43;;
14316;SDS011;7242;50.858;6.586;2023-05-21T10:34:58;12.23;;;10.67;;
14316;SDS011;7242;50.858;6.586;2023-05-21T10:37:59;11.77;;;10.43;;
14316;SDS011;7242;50.858;6.586;2023-05-21T10:41:03;14.60;;;13.17;;
14316;SDS011;7242;50.858;6.586;2023-05-21T10:44:18;13.17;;;9.70;;
14316;SDS011;7242;50.858;6.586;2023-05-21T10:47:26;11.77;;;10.53;;
14316;SDS011;7242;50.858;6.586;2023-05-21T11:00:46;11.83;;;10.40;;
14316;SDS011;7242;50.858;6.586;2023-05-21T11:03:47;11.13;;;9.93;;
14316;SDS011;7242;50.858;6.586;2023-05-21T11:06:49;13.87;;;10.80;;
14316;SDS011;7242;50.858;6.586;2023-05-21T11:09:50;14.43;;;11.37;;
14316;SDS011;7242;50.858;6.586;2023-05-21T11:16:13;12.57;;;10.83;;
14316;SDS011;7242;50.858;6.586;2023-05-21T11:19:15;12.57;;;11.23;;
14316;SDS011;7242;50.858;6.586;2023-05-21T11:22:21;12.43;;;11.17;;
14316;SDS011;7242;50.858;6.586;2023-05-21T11:25:23;12.10;;;10.90;;
14316;SDS011;7242;50.858;6.586;2023-05-21T11:28:31;13.50;;;11.10;;
14316;SDS011;7242;50.858;6.586;2023-05-21T11:31:33;14.27;;;12.80;;
14316;SDS011;7242;50.858;6.586;2023-05-21T11:34:37;19.27;;;17.30;;
14316;SDS011;7242;50.858;6.586;2023-05-21T11:37:39;14.03;;;12.57;;
14316;SDS011;7242;50.858;6.586;2023-05-21T11:40:50;12.90;;;11.60;;
14316;SDS011;7242;50.858;6.586;2023-05-21T11:43:59;17.50;;;12.03;;
14316;SDS011;7242;50.858;6.586;2023-05-21T11:47:00;14.13;;;12.73;;
14316;SDS011;7242;50.858;6.586;2023-05-21T11:50:02;16.30;;;12.43;;
14316;SDS011;7242;50.858;6.586;2023-05-21T11:53:03;12.70;;;11.40;;
14316;SDS011;7242;50.858;6.586;2023-05-21T11:56:06;12.00;;;10.70;;
14316;SDS011;7242;50.858;6.586;2023-05-21T11:59:12;13.60;;;10.90;;
14316;SDS011;7242;50.858;6.586;2023-05-21T12:02:14;14.33;;;12.53;;
14316;SDS011;7242;50.858;6.586;2023-05-21T12:05:16;17.17;;;15.33;;
14316;SDS011;7242;50.858;6.586;2023-05-21T12:08:21;13.83;;;12.23;;
14316;SDS011;7242;50.858;6.586;2023-05-21T12:11:24;14.53;;;12.97;;
14316;SDS011;7242;50.858;6.586;2023-05-21T12:14:26;13.47;;;12.07;;
14316;SDS011;7242;50.858;6.586;2023-05-21T12:17:27;15.77;;;12.77;;
14316;SDS011;7242;50.858;6.586;2023-05-21T12:20:30;14.93;;;13.37;;
14316;SDS011;7242;50.858;6.586;2023-05-21T12:23:31;15.97;;;14.33;;
14316;SDS011;7242;50.858;6.586;2023-05-21T12:26:31;14.83;;;13.27;;
14316;SDS011;7242;50.858;6.586;2023-05-21T12:29:35;15.50;;;13.90;;
14316;SDS011;7242;50.858;6.586;2023-05-21T12:32:39;14.93;;;12.70;;
14316;SDS011;7242;50.858;6.586;2023-05-21T12:35:46;13.63;;;12.23;;
14316;SDS011;7242;50.858;6.586;2023-05-21T12:38:51;14.87;;;13.37;;
14316;SDS011;7242;50.858;6.586;2023-05-21T12:41:53;14.83;;;13.33;;
14316;SDS011;7242;50.858;6.586;2023-05-21T12:44:53;13.87;;;12.37;;
14316;SDS011;7242;50.858;6.586;2023-05-21T12:47:54;15.80;;;14.07;;
14316;SDS011;7242;50.858;6.586;2023-05-21T12:50:57;14.80;;;13.30;;
14316;SDS011;7242;50.858;6.586;2023-05-21T12:53:58;15.77;;;14.10;;
14316;SDS011;7242;50.858;6.586;2023-05-21T12:57:12;13.87;;;12.40;;
14316;SDS011;7242;50.858;6.586;2023-05-21T13:00:22;15.03;;;12.90;;
14316;SDS011;7242;50.858;6.586;2023-05-21T13:03:24;14.00;;;12.60;;
14316;SDS011;7242;50.858;6.586;2023-05-21T13:06:26;16.37;;;13.43;;
14316;SDS011;7242;50.858;6.586;2023-05-21T13:09:26;14.57;;;12.83;;
14316;SDS011;7242;50.858;6.586;2023-05-21T13:12:28;13.83;;;12.23;;
14316;SDS011;7242;50.858;6.586;2023-05-21T13:15:29;14.03;;;12.53;;
14316;SDS011;7242;50.858;6.586;2023-05-21T13:18:30;14.33;;;12.83;;
14316;SDS011;7242;50.858;6.586;2023-05-21T13:21:31;14.67;;;13.27;;
14316;SDS011;7242;50.858;6.586;2023-05-21T13:24:32;13.17;;;11.87;;
14316;SDS011;7242;50.858;6.586;2023-05-21T13:27:33;13.83;;;12.37;;
14316;SDS011;7242;50.858;6.586;2023-05-21T13:30:35;13.73;;;12.43;;
14316;SDS011;7242;50.858;6.586;2023-05-21T13:33:36;15.10;;;13.50;;
14316;SDS011;7242;50.858;6.586;2023-05-21T13:36:37;13.47;;;12.17;;
14316;SDS011;7242;50.858;6.586;2023-05-21T13:39:39;14.63;;;13.10;;
14316;SDS011;7242;50.858;6.586;2023-05-21T13:42:40;16.40;;;13.60;;
14316;SDS011;7242;50.858;6.586;2023-05-21T13:45:41;15.60;;;14.00;;
14316;SDS011;7242;50.858;6.586;2023-05-21T13:48:42;14.93;;;12.73;;
14316;SDS011;7242;50.858;6.586;2023-05-21T13:51:43;13.27;;;12.07;;
14316;SDS011;7242;50.858;6.586;2023-05-21T13:54:44;15.40;;;12.57;;
14316;SDS011;7242;50.858;6.586;2023-05-21T13:57:45;13.70;;;12.30;;
14316;SDS011;7242;50.858;6.586;2023-05-21T14:00:46;15.07;;;12.63;;
14316;SDS011;7242;50.858;6.586;2023-05-21T14:03:47;12.57;;;11.37;;
14316;SDS011;7242;50.858;6.586;2023-05-21T14:06:48;13.43;;;12.10;;
14316;SDS011;7242;50.858;6.586;2023-05-21T14:09:49;13.03;;;11.73;;
14316;SDS011;7242;50.858;6.586;2023-05-21T14:12:51;12.53;;;11.23;;
14316;SDS011;7242;50.858;6.586;2023-05-21T14:15:52;13.43;;;12.20;;
14316;SDS011;7242;50.858;6.586;2023-05-21T14:18:52;13.03;;;11.23;;
14316;SDS011;7242;50.858;6.586;2023-05-21T14:21:54;12.40;;;11.17;;
14316;SDS011;7242;50.858;6.586;2023-05-21T14:24:55;14.77;;;13.37;;
14316;SDS011;7242;50.858;6.586;2023-05-21T14:27:56;11.27;;;10.27;;
14316;SDS011;7242;50.858;6.586;2023-05-21T14:30:57;13.67;;;12.27;;
14316;SDS011;7242;50.858;6.586;2023-05-21T14:33:58;12.47;;;11.20;;
14316;SDS011;7242;50.858;6.586;2023-05-21T14:36:59;12.50;;;11.30;;
14316;SDS011;7242;50.858;6.586;2023-05-21T14:40:00;12.03;;;10.73;;
14316;SDS011;7242;50.858;6.586;2023-05-21T14:43:01;12.97;;;11.53;;
14316;SDS011;7242;50.858;6.586;2023-05-21T14:46:02;14.27;;;12.10;;
14316;SDS011;7242;50.858;6.586;2023-05-21T14:49:03;13.03;;;11.33;;
14316;SDS011;7242;50.858;6.586;2023-05-21T14:52:05;13.33;;;10.87;;
14316;SDS011;7242;50.858;6.586;2023-05-21T14:55:06;12.77;;;11.47;;
14316;SDS011;7242;50.858;6.586;2023-05-21T14:58:07;15.33;;;12.87;;
14316;SDS011;7242;50.858;6.586;2023-05-21T15:01:08;13.60;;;11.37;;
14316;SDS011;7242;50.858;6.586;2023-05-21T15:04:09;11.57;;;10.47;;
14316;SDS011;7242;50.858;6.586;2023-05-21T15:07:10;12.27;;;10.97;;
14316;SDS011;7242;50.858;6.586;2023-05-21T15:10:11;12.90;;;10.67;;
14316;SDS011;7242;50.858;6.586;2023-05-21T15:13:12;12.50;;;11.30;;
14316;SDS011;7242;50.858;6.586;2023-05-21T15:16:13;13.57;;;11.50;;
14316;SDS011;7242;50.858;6.586;2023-05-21T15:19:14;13.73;;;12.37;;
14316;SDS011;7242;50.858;6.586;2023-05-21T15:22:15;13.00;;;11.60;;
14316;SDS011;7242;50.858;6.586;2023-05-21T15:25:16;13.07;;;11.20;;
14316;SDS011;7242;50.858;6.586;2023-05-21T15:28:19;13.00;;;11.30;;
14316;SDS011;7242;50.858;6.586;2023-05-21T15:31:21;12.50;;;11.20;;
14316;SDS011;7242;50.858;6.586;2023-05-21T15:34:22;11.80;;;10.70;;
14316;SDS011;7242;50.858;6.586;2023-05-21T15:37:24;12.97;;;10.87;;
14316;SDS011;7242;50.858;6.586;2023-05-21T15:40:26;13.10;;;11.80;;
14316;SDS011;7242;50.858;6.586;2023-05-21T15:43:26;12.43;;;11.13;;
14316;SDS011;7242;50.858;6.586;2023-05-21T15:46:27;12.20;;;11.03;;
14316;SDS011;7242;50.858;6.586;2023-05-21T15:49:28;11.73;;;10.57;;
14316;SDS011;7242;50.858;6.586;2023-05-21T15:52:29;11.93;;;10.60;;
14316;SDS011;7242;50.858;6.586;2023-05-21T15:55:31;12.53;;;10.73;;
14316;SDS011;7242;50.858;6.586;2023-05-21T15:58:32;13.17;;;11.10;;
14316;SDS011;7242;50.858;6.586;2023-05-21T16:01:33;12.93;;;11.43;;
14316;SDS011;7242;50.858;6.586;2023-05-21T16:04:34;12.97;;;11.57;;
14316;SDS011;7242;50.858;6.586;2023-05-21T16:07:35;13.40;;;11.60;;
14316;SDS011;7242;50.858;6.586;2023-05-21T16:10:36;11.33;;;10.33;;
14316;SDS011;7242;50.858;6.586;2023-05-21T16:13:38;12.27;;;10.93;;
14316;SDS011;7242;50.858;6.586;2023-05-21T16:16:39;12.37;;;10.50;;
14316;SDS011;7242;50.858;6.586;2023-05-21T16:19:40;14.50;;;11.43;;
14316;SDS011;7242;50.858;6.586;2023-05-21T16:22:42;14.17;;;10.67;;
14316;SDS011;7242;50.858;6.586;2023-05-21T16:25:43;11.30;;;10.30;;
14316;SDS011;7242;50.858;6.586;2023-05-21T16:28:44;11.77;;;10.67;;
14316;SDS011;7242;50.858;6.586;2023-05-21T16:31:45;13.13;;;11.73;;
14316;SDS011;7242;50.858;6.586;2023-05-21T16:34:46;15.20;;;10.20;;
14316;SDS011;7242;50.858;6.586;2023-05-21T16:37:47;11.57;;;9.97;;
14316;SDS011;7242;50.858;6.586;2023-05-21T16:40:48;11.47;;;10.17;;
14316;SDS011;7242;50.858;6.586;2023-05-21T16:43:49;10.17;;;9.17;;
14316;SDS011;7242;50.858;6.586;2023-05-21T16:46:53;14.97;;;13.37;;
14316;SDS011;7242;50.858;6.586;2023-05-21T16:49:54;14.93;;;13.43;;
14316;SDS011;7242;50.858;6.586;2023-05-21T16:52:55;12.23;;;11.10;;
14316;SDS011;7242;50.858;6.586;2023-05-21T16:55:58;12.97;;;11.57;;
14316;SDS011;7242;50.858;6.586;2023-05-21T16:58:58;14.30;;;12.80;;
14316;SDS011;7242;50.858;6.586;2023-05-21T17:01:59;14.03;;;12.10;;
14316;SDS011;7242;50.858;6.586;2023-05-21T17:05:00;13.63;;;12.03;;
14316;SDS011;7242;50.858;6.586;2023-05-21T17:08:01;13.03;;;11.73;;
14316;SDS011;7242;50.858;6.586;2023-05-21T17:11:02;22.93;;;20.63;;
14316;SDS011;7242;50.858;6.586;2023-05-21T17:14:02;19.47;;;17.53;;
14316;SDS011;7242;50.858;6.586;2023-05-21T17:17:03;13.27;;;11.87;;
14316;SDS011;7242;50.858;6.586;2023-05-21T17:20:04;13.20;;;11.90;;
14316;SDS011;7242;50.858;6.586;2023-05-21T17:23:06;13.80;;;12.23;;
14316;SDS011;7242;50.858;6.586;2023-05-21T17:26:07;13.07;;;11.77;;
14316;SDS011;7242;50.858;6.586;2023-05-21T17:29:08;12.53;;;11.37;;
14316;SDS011;7242;50.858;6.586;2023-05-21T17:32:09;12.33;;;11.13;;
14316;SDS011;7242;50.858;6.586;2023-05-21T17:35:11;12.07;;;10.87;;
14316;SDS011;7242;50.858;6.586;2023-05-21T17:38:12;25.97;;;23.13;;
14316;SDS011;7242;50.858;6.586;2023-05-21T17:41:13;39.03;;;35.13;;
14316;SDS011;7242;50.858;6.586;2023-05-21T17:44:17;134.87;;;121.40;;
14316;SDS011;7242;50.858;6.586;2023-05-21T17:47:18;67.27;;;60.63;;
14316;SDS011;7242;50.858;6.586;2023-05-21T17:50:19;23.17;;;21.07;;
14316;SDS011;7242;50.858;6.586;2023-05-21T17:53:21;18.30;;;16.30;;
14316;SDS011;7242;50.858;6.586;2023-05-21T17:56:22;18.37;;;15.73;;
14316;SDS011;7242;50.858;6.586;2023-05-21T17:59:23;16.40;;;14.80;;
14316;SDS011;7242;50.858;6.586;2023-05-21T18:02:24;20.77;;;18.77;;
14316;SDS011;7242;50.858;6.586;2023-05-21T18:05:26;18.17;;;16.47;;
14316;SDS011;7242;50.858;6.586;2023-05-21T18:08:27;15.80;;;14.30;;
14316;SDS011;7242;50.858;6.586;2023-05-21T18:11:28;16.83;;;15.13;;
14316;SDS011;7242;50.858;6.586;2023-05-21T18:14:29;16.50;;;14.97;;
14316;SDS011;7242;50.858;6.586;2023-05-21T18:17:30;17.23;;;15.70;;
14316;SDS011;7242;50.858;6.586;2023-05-21T18:20:32;16.93;;;15.13;;
14316;SDS011;7242;50.858;6.586;2023-05-21T18:23:33;16.67;;;15.07;;